Portada
METAR-TAF:

METAR-TAF

Aeropuertos :

Xi'an, China

Aeropuerto Internacional de Xi'an-Xianyang

latitud: 34-26N, longitud: 108-45E, altitud: 479 m

Observación

El informe se hizo hace 38 minutos, a las 22:00 UTC
Viento 4 kt del norte-noreste, variando entre norte y noreste
Temperatura 27°C
Humedad 62%
Presión 1003 hPa
Visibilidad 10 km o más
sin nubes por debajo de 1500 m y sin presencia de cumulonimbus.

METAR: ZLXY 242200Z 03002MPS 350V050 CAVOK 27/19 Q1003 NOSIG

Hora: 06:38 (22:38 UTC)

Pronóstico

El informe se hizo hace 7 horas y 24 minutos, a las 15:14 UTC
Pronóstico válido del 24 a las 18 UTC al 25 a las 18 UTC
Viento 6 kt del este-sureste
Visibilidad: 6000 m
Temporalmente
del 25 a las 06 UTC al 25 a las 12 UTC
Escasas nubes a una altura de 4000 ft, Cumulonimbus.
chaparrones de lluvia

TAF: ZLXY 241514Z 2418/2518 12003MPS 6000 NSC TX41/2508Z TN29/2421Z TEMPO 2506/2512 SHRA FEW040CB

Observaciones y pronósticos meteorológicos de más de 4000 aeropuertos (mensajes METAR y TAF).

Los puntos amarillos y rojos representan las estaciones disponibles.

Ponga el ratón en el punto deseado para ver el nombre de la estación.

Haga clic para ver las observaciones y los pronósticos meteorológicos.

Para cambiar el mapa : haga clic en los botones verdes con una cruz de color negro para hacer un zoom, en el botón verde con un guión para alejar o en las flechas verdes para mapas adyacentes.


METAR-TAF: